Map

Track Data

SID SEASON NUMBER BASIN SUBBASIN NAME ISO_TIME NATURE LAT LON WMO_WIND WMO_PRES WMO_AGENCY TRACK_TYPE DIST2LAND LANDFALL IFLAG USA_AGENCY USA_ATCF_ID USA_LAT USA_LON USA_RECORD USA_STATUS USA_WIND USA_PRES USA_SSHS USA_R34_NE USA_R34_SE USA_R34_SW USA_R34_NW USA_R50_NE USA_R50_SE USA_R50_SW USA_R50_NW USA_R64_NE USA_R64_SE USA_R64_SW USA_R64_NW USA_POCI USA_ROCI USA_RMW USA_EYE TOKYO_LAT TOKYO_LON TOKYO_GRADE TOKYO_WIND TOKYO_PRES TOKYO_R50_DIR TOKYO_R50_LONG TOKYO_R50_SHORT TOKYO_R30_DIR TOKYO_R30_LONG TOKYO_R30_SHORT TOKYO_LAND CMA_LAT CMA_LON CMA_CAT CMA_WIND CMA_PRES HKO_LAT HKO_LON HKO_CAT HKO_WIND HKO_PRES NEWDELHI_LAT NEWDELHI_LON NEWDELHI_GRADE NEWDELHI_WIND NEWDELHI_PRES NEWDELHI_CI NEWDELHI_DP NEWDELHI_POCI REUNION_LAT REUNION_LON REUNION_TYPE REUNION_WIND REUNION_PRES REUNION_TNUM REUNION_CI REUNION_RMW REUNION_R34_NE REUNION_R34_SE REUNION_R34_SW REUNION_R34_NW REUNION_R50_NE REUNION_R50_SE REUNION_R50_SW REUNION_R50_NW REUNION_R64_NE REUNION_R64_SE REUNION_R64_SW REUNION_R64_NW BOM_LAT BOM_LON BOM_TYPE BOM_WIND BOM_PRES BOM_TNUM BOM_CI BOM_RMW BOM_R34_NE BOM_R34_SE BOM_R34_SW BOM_R34_NW BOM_R50_NE BOM_R50_SE BOM_R50_SW BOM_R50_NW BOM_R64_NE BOM_R64_SE BOM_R64_SW BOM_R64_NW BOM_ROCI BOM_POCI BOM_EYE BOM_POS_METHOD BOM_PRES_METHOD NADI_LAT NADI_LON NADI_CAT NADI_WIND NADI_PRES WELLINGTON_LAT WELLINGTON_LON WELLINGTON_WIND WELLINGTON_PRES DS824_LAT DS824_LON DS824_STAGE DS824_WIND DS824_PRES TD9636_LAT TD9636_LON TD9636_STAGE TD9636_WIND TD9636_PRES TD9635_LAT TD9635_LON TD9635_WIND TD9635_PRES TD9635_ROCI NEUMANN_LAT NEUMANN_LON NEUMANN_CLASS NEUMANN_WIND NEUMANN_PRES MLC_LAT MLC_LON MLC_CLASS MLC_WIND MLC_PRES USA_GUST BOM_GUST BOM_GUST_PER REUNION_GUST REUNION_GUST_PER USA_SEAHGT USA_SEARAD_NE USA_SEARAD_SE USA_SEARAD_SW USA_SEARAD_NW STORM_SPEED STORM_DIR
1920341S31153 1921 53 SP EA NOT_NAMED 1920-12-05 12:00:00 NR -31.1000 152.800 main 0 0 __________O___ -1 -31.1000 152.800 7 0 0
1920341S31153 1921 53 SP EA NOT_NAMED 1920-12-05 15:00:00 NR -31.1172 152.787 main 0 0 __________P___ -1 -31.1172 152.787 7 0 199
1920341S31153 1921 53 SP EA NOT_NAMED 1920-12-05 18:00:00 NR -31.1375 152.770 main 0 0 __________P___ -1 -31.1375 152.770 7 1 213
1920341S31153 1921 53 SP EA NOT_NAMED 1920-12-05 21:00:00 NR -31.1640 152.742 main 0 0 __________P___ -1 -31.1640 152.742 7 1 218
1920341S31153 1921 53 SP EA NOT_NAMED 1920-12-06 00:00:00 NR -31.2000 152.700 main 0 0 __________O___ -1 -31.2000 152.700 7 1 226
1920341S31153 1921 53 SP EA NOT_NAMED 1920-12-06 03:00:00 NR -31.2469 152.639 main 0 0 __________P___ -1 -31.2469 152.639 7 2 229
1920341S31153 1921 53 SP EA NOT_NAMED 1920-12-06 06:00:00 NR -31.3000 152.565 main 0 0 __________P___ -1 -31.3000 152.565 7 2 231
1920341S31153 1921 53 SP EA NOT_NAMED 1920-12-06 09:00:00 NR -31.3531 152.483 main 0 0 __________P___ -1 -31.3531 152.483 7 2 235
1920341S31153 1921 53 SP EA NOT_NAMED 1920-12-06 12:00:00 NR -31.4000 152.400 main 0 0 __________O___ -1 -31.4000 152.400 7 2 222
1920341S31153 1921 53 SP EA NOT_NAMED 1920-12-06 15:00:00 NR -31.5012 152.329 main 0 0 __________P___ -1 -31.5012 152.329 7 2 213
1920341S31153 1921 53 SP EA NOT_NAMED 1920-12-06 18:00:00 NR -31.5849 152.258 main 0 0 __________P___ -1 -31.5849 152.258 7 2 231
1920341S31153 1921 53 SP EA NOT_NAMED 1920-12-06 21:00:00 NR -31.6012 152.183 main 0 0 __________P___ -1 -31.6012 152.183 7 2 301
1920341S31153 1921 53 SP EA NOT_NAMED 1920-12-07 00:00:00 NR -31.5000 152.100 main 0 0 __________O___ -1 -31.5000 152.100 7 4 332
1920341S31153 1921 53 SP EA NOT_NAMED 1920-12-07 03:00:00 NR -31.2262 151.948 main 0 0 __________P___ -1 -31.2262 151.948 7 7 339
1920341S31153 1921 53 SP EA NOT_NAMED 1920-12-07 06:00:00 NR -30.8348 151.799 main 0 0 __________P___ -1 -30.8348 151.799 7 9 346
1920341S31153 1921 53 SP EA NOT_NAMED 1920-12-07 09:00:00 NR -30.3760 151.701 main 0 0 __________P___ -1 -30.3760 151.701 7 9 355
1920341S31153 1921 53 SP EA NOT_NAMED 1920-12-07 12:00:00 NR -29.9000 151.700 main 0 0 __________O___ -1 -29.9000 151.700 7 11 8
1920341S31153 1921 53 SP EA NOT_NAMED 1920-12-07 15:00:00 NR -29.3405 151.870 main 0 0 __________P___ -1 -29.3405 151.870 7 12 19
1920341S31153 1921 53 SP EA NOT_NAMED 1920-12-07 18:00:00 NR -28.7958 152.130 main 0 0 __________P___ -1 -28.7958 152.130 7 11 27
1920341S31153 1921 53 SP EA NOT_NAMED 1920-12-07 21:00:00 NR -28.3780 152.426 main 0 0 __________P___ -1 -28.3780 152.426 7 8 40
1920341S31153 1921 53 SP EA NOT_NAMED 1920-12-08 00:00:00 NR -28.2000 152.700 main 0 0 __________O___ -1 -28.2000 152.700 7 4 93
1920341S31153 1921 53 SP EA NOT_NAMED 1920-12-08 03:00:00 NR -28.4024 152.900 main 0 0 __________P___ -1 -28.4024 152.900 7 7 153
1920341S31153 1921 53 SP EA NOT_NAMED 1920-12-08 06:00:00 NR -28.8449 153.072 main 0 0 __________P___ -1 -28.8449 153.072 7 11 165
1920341S31153 1921 53 SP EA NOT_NAMED 1920-12-08 09:00:00 NR -29.4150 153.207 main 0 0 __________P___ -1 -29.4150 153.207 7 12 170
1920341S31153 1921 53 SP EA NOT_NAMED 1920-12-08 12:00:00 NR -30.0000 153.300 main 9 9 __________O___ -1 -30.0000 153.300 7 11 173
1920341S31153 1921 53 SP EA NOT_NAMED 1920-12-08 15:00:00 NR -30.4564 153.348 main 28 28 __________P___ -1 -30.4564 153.348 7 9 178
1920341S31153 1921 53 SP EA NOT_NAMED 1920-12-08 18:00:00 NR -30.9023 153.354 main 36 19 __________P___ -1 -30.9023 153.354 7 9 181
1920341S31153 1921 53 SP EA NOT_NAMED 1920-12-08 21:00:00 NR -31.3221 153.332 main 28 28 __________P___ -1 -31.3221 153.332 7 8 182
1920341S31153 1921 53 SP EA NOT_NAMED 1920-12-09 00:00:00 NR -31.7000 153.300 main 43 43 __________O___ -1 -31.7000 153.300 7 7 183
1920341S31153 1921 53 SP EA NOT_NAMED 1920-12-09 03:00:00 NR -32.0343 153.290 main 52 52 __________P___ -1 -32.0343 153.290 7 6 0
1920341S31153 1921 53 SP EA NOT_NAMED 1920-12-09 06:00:00 NR -32.3249 153.272 main 72 66 __________P___ -1 -32.3249 153.272 7 5 184
1920341S31153 1921 53 SP EA NOT_NAMED 1920-12-09 09:00:00 NR -32.5781 153.243 main 69 69 __________P___ -1 -32.5781 153.243 7 5 186
1920341S31153 1921 53 SP EA NOT_NAMED 1920-12-09 12:00:00 NR -32.8000 153.200 main 79 79 __________O___ -1 -32.8000 153.200 7 4 191
1920341S31153 1921 53 SP EA NOT_NAMED 1920-12-09 15:00:00 NR -33.0160 153.135 main 87 87 __________P___ -1 -33.0160 153.135 7 4 197
1920341S31153 1921 53 SP EA NOT_NAMED 1920-12-09 18:00:00 NR -33.2025 153.058 main 100 93 __________P___ -1 -33.2025 153.058 7 4 201
1920341S31153 1921 53 SP EA NOT_NAMED 1920-12-09 21:00:00 NR -33.3628 152.976 main 107 101 __________P___ -1 -33.3628 152.976 7 3 204
1920341S31153 1921 53 SP EA NOT_NAMED 1920-12-10 00:00:00 NR -33.5000 152.900 main 110 110 __________O___ -1 -33.5000 152.900 7 3 202
1920341S31153 1921 53 SP EA NOT_NAMED 1920-12-10 03:00:00 NR -33.6297 152.843 main 114 114 __________P___ -1 -33.6297 152.843 7 3 200
1920341S31153 1921 53 SP EA NOT_NAMED 1920-12-10 06:00:00 NR -33.7375 152.792 main 119 115 __________P___ -1 -33.7375 152.792 7 2 202
1920341S31153 1921 53 SP EA NOT_NAMED 1920-12-10 09:00:00 NR -33.8265 152.746 main 115 115 __________P___ -1 -33.8265 152.746 7 2 206
1920341S31153 1921 53 SP EA NOT_NAMED 1920-12-10 12:00:00 NR -33.9000 152.700 main 119 119 __________O___ -1 -33.9000 152.700 7 2 209
1920341S31153 1921 53 SP EA NOT_NAMED 1920-12-10 15:00:00 NR -33.9603 152.650 main 115 115 __________P___ -1 -33.9603 152.650 7 1 215
1920341S31153 1921 53 SP EA NOT_NAMED 1920-12-10 18:00:00 NR -34.0075 152.600 main 115 115 __________P___ -1 -34.0075 152.600 7 1 220
1920341S31153 1921 53 SP EA NOT_NAMED 1920-12-10 21:00:00 NR -34.0509 152.550 main 110 110 __________P___ -1 -34.0509 152.550 7 1 219
1920341S31153 1921 53 SP EA NOT_NAMED 1920-12-11 00:00:00 NR -34.1000 152.500 main 110 110 __________O___ -1 -34.1000 152.500 7 1 215
1920341S31153 1921 53 SP EA NOT_NAMED 1920-12-11 03:00:00 NR -34.1678 152.450 main 112 103 __________P___ -1 -34.1678 152.450 7 2 209
1920341S31153 1921 53 SP EA NOT_NAMED 1920-12-11 06:00:00 NR -34.2425 152.400 main 103 103 __________P___ -1 -34.2425 152.400 7 2 207
1920341S31153 1921 53 SP EA NOT_NAMED 1920-12-11 09:00:00 NR -34.3209 152.350 main 97 97 __________P___ -1 -34.3209 152.350 7 2 207
1920341S31153 1921 53 SP EA NOT_NAMED 1920-12-11 12:00:00 NR -34.4000 152.300 main 102 102 __________O___ -1 -34.4000 152.300 7 2 204
1920341S31153 1921 53 SP EA NOT_NAMED 1920-12-11 15:00:00 NR -34.4790 152.266 main 107 99 __________P___ -1 -34.4790 152.266 7 2 200
1920341S31153 1921 53 SP EA NOT_NAMED 1920-12-11 18:00:00 NR -34.5574 152.230 main 106 106 __________P___ -1 -34.5574 152.230 7 2 204
1920341S31153 1921 53 SP EA NOT_NAMED 1920-12-11 21:00:00 NR -34.6321 152.179 main 106 106 __________P___ -1 -34.6321 152.179 7 2 216
1920341S31153 1921 53 SP EA NOT_NAMED 1920-12-12 00:00:00 NR -34.7000 152.100 main 107 100 __________O___ -1 -34.7000 152.100 7 2 229
1920341S31153 1921 53 SP EA NOT_NAMED 1920-12-12 03:00:00 NR -34.7776 151.979 main 102 85 __________P___ -1 -34.7776 151.979 7 3 236
1920341S31153 1921 53 SP EA NOT_NAMED 1920-12-12 06:00:00 NR -34.8451 151.830 main 85 80 __________P___ -1 -34.8451 151.830 7 3 246
1920341S31153 1921 53 SP EA NOT_NAMED 1920-12-12 09:00:00 NR -34.8901 151.667 main 80 64 __________P___ -1 -34.8901 151.667 7 3 259
1920341S31153 1921 53 SP EA NOT_NAMED 1920-12-12 12:00:00 NR -34.9000 151.500 main 64 46 __________O___ -1 -34.9000 151.500 7 3 275
1920341S31153 1921 53 SP EA NOT_NAMED 1920-12-12 15:00:00 NR -34.8666 151.341 main 46 35 __________P___ -1 -34.8666 151.341 7 3 292
1920341S31153 1921 53 SP EA NOT_NAMED 1920-12-12 18:00:00 NR -34.7975 151.189 main 35 21 __________P___ -1 -34.7975 151.189 7 3 303
1920341S31153 1921 53 SP EA NOT_NAMED 1920-12-12 21:00:00 NR -34.7048 151.043 main 14 0 __________P___ -1 -34.7048 151.043 7 3 310
1920341S31153 1921 53 SP EA NOT_NAMED 1920-12-13 00:00:00 NR -34.6000 150.900 main 0 __________O___ -1 -34.6000 150.900 7 3 311

Digital Typhoon Data and Search

About IBTrACS Database

This database is a web-friendly format of International Best Track Archive for Climate Stewardship (IBTrACS), a global best track data archive curated by NOAA dating back to 1842.

Updated: 2021-12-03